sensor_id;sensor_type;location;lat;lon;timestamp;pressure;altitude;pressure_sealevel;temperature;humidity
9764;BME280;4921;43.214;27.936;2023-03-18T00:01:13;101594.38;;;10.09;45.10
9764;BME280;4921;43.214;27.936;2023-03-18T00:03:40;101602.19;;;10.11;45.13
9764;BME280;4921;43.214;27.936;2023-03-18T00:06:11;101602.63;;;10.03;45.23
9764;BME280;4921;43.214;27.936;2023-03-18T00:08:38;101602.16;;;9.96;45.06
9764;BME280;4921;43.214;27.936;2023-03-18T00:11:07;101603.38;;;10.05;44.70
9764;BME280;4921;43.214;27.936;2023-03-18T00:13:35;101592.31;;;10.00;44.64
9764;BME280;4921;43.214;27.936;2023-03-18T00:16:04;101600.84;;;10.04;45.26
9764;BME280;4921;43.214;27.936;2023-03-18T00:18:31;101592.78;;;9.92;44.99
9764;BME280;4921;43.214;27.936;2023-03-18T00:20:59;101600.09;;;9.87;45.89
9764;BME280;4921;43.214;27.936;2023-03-18T00:23:28;101598.78;;;9.80;46.31
9764;BME280;4921;43.214;27.936;2023-03-18T00:25:56;101598.97;;;9.77;46.59
9764;BME280;4921;43.214;27.936;2023-03-18T00:28:24;101607.50;;;9.81;45.66
9764;BME280;4921;43.214;27.936;2023-03-18T00:30:51;101587.81;;;9.74;45.66
9764;BME280;4921;43.214;27.936;2023-03-18T00:33:19;101592.69;;;9.80;44.26
9764;BME280;4921;43.214;27.936;2023-03-18T00:35:46;101589.84;;;9.69;44.68
9764;BME280;4921;43.214;27.936;2023-03-18T00:38:14;101590.13;;;9.64;45.34
9764;BME280;4921;43.214;27.936;2023-03-18T00:40:46;101589.38;;;9.62;45.54
9764;BME280;4921;43.214;27.936;2023-03-18T00:43:29;101590.16;;;9.35;46.34
9764;BME280;4921;43.214;27.936;2023-03-18T00:46:00;101587.50;;;9.50;45.91
9764;BME280;4921;43.214;27.936;2023-03-18T00:48:28;101588.25;;;9.52;46.07
9764;BME280;4921;43.214;27.936;2023-03-18T00:50:55;101581.13;;;9.54;46.18
9764;BME280;4921;43.214;27.936;2023-03-18T00:53:22;101583.09;;;9.51;46.18
9764;BME280;4921;43.214;27.936;2023-03-18T00:55:52;101582.63;;;9.58;46.14
9764;BME280;4921;43.214;27.936;2023-03-18T00:58:19;101579.13;;;9.58;45.74
9764;BME280;4921;43.214;27.936;2023-03-18T01:00:46;101582.63;;;9.44;45.95
9764;BME280;4921;43.214;27.936;2023-03-18T01:03:14;101578.06;;;9.18;48.07
9764;BME280;4921;43.214;27.936;2023-03-18T01:05:40;101576.03;;;9.37;48.16
9764;BME280;4921;43.214;27.936;2023-03-18T01:08:08;101578.88;;;9.48;46.46
9764;BME280;4921;43.214;27.936;2023-03-18T01:10:35;101575.94;;;9.39;46.88
9764;BME280;4921;43.214;27.936;2023-03-18T01:13:04;101586.91;;;9.45;47.01
9764;BME280;4921;43.214;27.936;2023-03-18T01:15:31;101570.78;;;9.51;46.70
9764;BME280;4921;43.214;27.936;2023-03-18T01:17:59;101584.97;;;9.49;46.65
9764;BME280;4921;43.214;27.936;2023-03-18T01:20:26;101580.84;;;9.59;46.25
9764;BME280;4921;43.214;27.936;2023-03-18T01:22:53;101586.75;;;9.62;46.27
9764;BME280;4921;43.214;27.936;2023-03-18T01:25:21;101577.75;;;9.52;47.15
9764;BME280;4921;43.214;27.936;2023-03-18T01:27:48;101587.28;;;9.53;47.08
9764;BME280;4921;43.214;27.936;2023-03-18T01:30:16;101569.88;;;9.52;48.30
9764;BME280;4921;43.214;27.936;2023-03-18T01:32:44;101571.63;;;9.38;49.02
9764;BME280;4921;43.214;27.936;2023-03-18T01:35:12;101571.97;;;9.32;50.02
9764;BME280;4921;43.214;27.936;2023-03-18T01:37:39;101577.16;;;9.03;50.54
9764;BME280;4921;43.214;27.936;2023-03-18T01:40:08;101558.69;;;9.05;51.49
9764;BME280;4921;43.214;27.936;2023-03-18T01:42:36;101565.19;;;9.13;51.58
9764;BME280;4921;43.214;27.936;2023-03-18T01:45:11;101579.47;;;8.94;51.36
9764;BME280;4921;43.214;27.936;2023-03-18T01:47:42;101574.19;;;9.09;50.82
9764;BME280;4921;43.214;27.936;2023-03-18T01:50:09;101579.16;;;9.14;50.56
9764;BME280;4921;43.214;27.936;2023-03-18T01:52:37;101584.31;;;9.15;50.37
9764;BME280;4921;43.214;27.936;2023-03-18T01:55:07;101583.47;;;9.15;50.36
9764;BME280;4921;43.214;27.936;2023-03-18T01:57:36;101585.81;;;9.19;49.73
9764;BME280;4921;43.214;27.936;2023-03-18T02:00:04;101580.75;;;9.16;49.41
9764;BME280;4921;43.214;27.936;2023-03-18T02:02:32;101581.31;;;9.07;50.38
9764;BME280;4921;43.214;27.936;2023-03-18T02:05:04;101595.34;;;9.06;50.23
9764;BME280;4921;43.214;27.936;2023-03-18T02:07:33;101595.69;;;9.00;50.04
9764;BME280;4921;43.214;27.936;2023-03-18T02:10:03;101590.84;;;9.08;50.16
9764;BME280;4921;43.214;27.936;2023-03-18T02:12:33;101594.69;;;9.03;50.03
9764;BME280;4921;43.214;27.936;2023-03-18T02:15:03;101585.47;;;8.96;50.75
9764;BME280;4921;43.214;27.936;2023-03-18T02:17:33;101583.22;;;9.04;50.43
9764;BME280;4921;43.214;27.936;2023-03-18T02:20:10;101565.94;;;8.86;50.67
9764;BME280;4921;43.214;27.936;2023-03-18T02:22:43;101580.13;;;8.97;51.42
9764;BME280;4921;43.214;27.936;2023-03-18T02:25:20;101582.97;;;9.08;51.76
9764;BME280;4921;43.214;27.936;2023-03-18T02:27:54;101583.34;;;9.02;50.72
9764;BME280;4921;43.214;27.936;2023-03-18T02:30:26;101567.19;;;8.94;49.73
9764;BME280;4921;43.214;27.936;2023-03-18T02:32:55;101583.00;;;8.93;50.12
9764;BME280;4921;43.214;27.936;2023-03-18T02:35:24;101569.94;;;8.77;51.04
9764;BME280;4921;43.214;27.936;2023-03-18T02:37:53;101566.59;;;8.89;50.30
9764;BME280;4921;43.214;27.936;2023-03-18T02:40:26;101574.22;;;8.94;49.77
9764;BME280;4921;43.214;27.936;2023-03-18T02:42:55;101579.47;;;8.78;49.92
9764;BME280;4921;43.214;27.936;2023-03-18T02:45:34;101584.47;;;8.67;51.30
9764;BME280;4921;43.214;27.936;2023-03-18T02:48:05;101560.41;;;8.45;51.93
9764;BME280;4921;43.214;27.936;2023-03-18T02:50:33;101585.19;;;8.55;52.96
9764;BME280;4921;43.214;27.936;2023-03-18T02:53:01;101582.47;;;8.57;51.36
9764;BME280;4921;43.214;27.936;2023-03-18T02:55:29;101583.06;;;8.62;51.01
9764;BME280;4921;43.214;27.936;2023-03-18T02:57:58;101587.91;;;8.54;51.36
9764;BME280;4921;43.214;27.936;2023-03-18T03:00:25;101577.91;;;8.60;51.04
9764;BME280;4921;43.214;27.936;2023-03-18T03:02:52;101583.75;;;8.34;50.84
9764;BME280;4921;43.214;27.936;2023-03-18T03:05:19;101588.13;;;8.33;51.60
9764;BME280;4921;43.214;27.936;2023-03-18T03:07:46;101579.19;;;8.37;51.76
9764;BME280;4921;43.214;27.936;2023-03-18T03:10:13;101584.91;;;8.28;51.81
9764;BME280;4921;43.214;27.936;2023-03-18T03:12:40;101583.28;;;8.26;52.02
9764;BME280;4921;43.214;27.936;2023-03-18T03:15:09;101579.59;;;8.30;51.32
9764;BME280;4921;43.214;27.936;2023-03-18T03:17:37;101580.91;;;8.06;51.43
9764;BME280;4921;43.214;27.936;2023-03-18T03:20:05;101581.91;;;8.03;53.05
9764;BME280;4921;43.214;27.936;2023-03-18T03:22:32;101585.13;;;8.08;52.49
9764;BME280;4921;43.214;27.936;2023-03-18T03:25:00;101587.28;;;8.00;52.98
9764;BME280;4921;43.214;27.936;2023-03-18T03:27:27;101578.38;;;8.04;52.90
9764;BME280;4921;43.214;27.936;2023-03-18T03:29:55;101581.91;;;8.03;52.28
9764;BME280;4921;43.214;27.936;2023-03-18T03:32:24;101580.28;;;8.01;52.27
9764;BME280;4921;43.214;27.936;2023-03-18T03:34:51;101571.91;;;7.94;52.45
9764;BME280;4921;43.214;27.936;2023-03-18T03:37:18;101583.38;;;7.92;52.79
9764;BME280;4921;43.214;27.936;2023-03-18T03:39:45;101582.25;;;7.97;52.56
9764;BME280;4921;43.214;27.936;2023-03-18T03:42:13;101580.72;;;7.93;52.15
9764;BME280;4921;43.214;27.936;2023-03-18T03:44:40;101593.28;;;7.87;53.12
9764;BME280;4921;43.214;27.936;2023-03-18T03:47:08;101583.09;;;7.81;52.98
9764;BME280;4921;43.214;27.936;2023-03-18T03:49:36;101589.38;;;7.78;53.70
9764;BME280;4921;43.214;27.936;2023-03-18T03:52:04;101582.09;;;7.83;53.23
9764;BME280;4921;43.214;27.936;2023-03-18T03:54:31;101586.22;;;7.72;53.33
9764;BME280;4921;43.214;27.936;2023-03-18T03:56:58;101586.00;;;7.76;53.17
9764;BME280;4921;43.214;27.936;2023-03-18T03:59:25;101593.00;;;7.76;52.43
9764;BME280;4921;43.214;27.936;2023-03-18T04:01:52;101592.28;;;7.72;52.39
9764;BME280;4921;43.214;27.936;2023-03-18T04:04:19;101593.47;;;7.66;52.42
9764;BME280;4921;43.214;27.936;2023-03-18T04:06:48;101592.41;;;7.53;52.69
9764;BME280;4921;43.214;27.936;2023-03-18T04:09:15;101595.41;;;7.63;52.54
9764;BME280;4921;43.214;27.936;2023-03-18T04:11:42;101583.41;;;7.59;52.83
9764;BME280;4921;43.214;27.936;2023-03-18T04:14:10;101595.41;;;7.63;52.41
9764;BME280;4921;43.214;27.936;2023-03-18T04:16:37;101588.78;;;7.56;52.25
9764;BME280;4921;43.214;27.936;2023-03-18T04:19:04;101597.88;;;7.49;52.74
9764;BME280;4921;43.214;27.936;2023-03-18T04:21:31;101585.50;;;7.52;52.44
9764;BME280;4921;43.214;27.936;2023-03-18T04:24:00;101591.25;;;7.42;52.88
9764;BME280;4921;43.214;27.936;2023-03-18T04:26:28;101591.56;;;7.36;52.77
9764;BME280;4921;43.214;27.936;2023-03-18T04:28:55;101590.13;;;7.30;53.46
9764;BME280;4921;43.214;27.936;2023-03-18T04:31:23;101575.66;;;7.23;53.31
9764;BME280;4921;43.214;27.936;2023-03-18T04:33:51;101584.34;;;7.24;52.68
9764;BME280;4921;43.214;27.936;2023-03-18T04:36:18;101597.66;;;7.36;52.88
9764;BME280;4921;43.214;27.936;2023-03-18T04:38:45;101599.88;;;7.27;53.42
9764;BME280;4921;43.214;27.936;2023-03-18T04:41:13;101598.06;;;7.29;53.50
9764;BME280;4921;43.214;27.936;2023-03-18T04:46:15;101602.75;;;7.05;54.97
9764;BME280;4921;43.214;27.936;2023-03-18T04:48:42;101593.66;;;7.12;53.83
9764;BME280;4921;43.214;27.936;2023-03-18T04:51:09;101601.50;;;7.12;54.02
9764;BME280;4921;43.214;27.936;2023-03-18T04:53:37;101600.50;;;7.15;54.00
9764;BME280;4921;43.214;27.936;2023-03-18T04:56:05;101600.59;;;7.13;54.39
9764;BME280;4921;43.214;27.936;2023-03-18T04:58:34;101600.81;;;7.26;53.68
9764;BME280;4921;43.214;27.936;2023-03-18T05:01:01;101601.66;;;7.26;53.08
9764;BME280;4921;43.214;27.936;2023-03-18T05:03:29;101591.19;;;7.26;52.81
9764;BME280;4921;43.214;27.936;2023-03-18T05:05:56;101595.59;;;7.26;53.12
9764;BME280;4921;43.214;27.936;2023-03-18T05:08:24;101602.34;;;7.13;54.32
9764;BME280;4921;43.214;27.936;2023-03-18T05:10:51;101603.03;;;7.16;53.24
9764;BME280;4921;43.214;27.936;2023-03-18T05:13:18;101594.34;;;7.16;53.35
9764;BME280;4921;43.214;27.936;2023-03-18T05:15:47;101605.41;;;7.21;53.35
9764;BME280;4921;43.214;27.936;2023-03-18T05:18:14;101605.19;;;7.25;53.36
9764;BME280;4921;43.214;27.936;2023-03-18T05:20:41;101601.50;;;7.29;53.25
9764;BME280;4921;43.214;27.936;2023-03-18T05:23:08;101608.34;;;7.32;53.20
9764;BME280;4921;43.214;27.936;2023-03-18T05:25:36;101612.44;;;7.20;53.28
9764;BME280;4921;43.214;27.936;2023-03-18T05:28:03;101606.41;;;7.01;56.35
9764;BME280;4921;43.214;27.936;2023-03-18T05:30:30;101593.06;;;7.24;56.01
9764;BME280;4921;43.214;27.936;2023-03-18T05:32:58;101600.50;;;7.32;54.90
9764;BME280;4921;43.214;27.936;2023-03-18T05:35:25;101594.97;;;7.21;54.50
9764;BME280;4921;43.214;27.936;2023-03-18T05:37:52;101601.22;;;7.35;54.60
9764;BME280;4921;43.214;27.936;2023-03-18T05:40:19;101603.28;;;7.29;56.31
9764;BME280;4921;43.214;27.936;2023-03-18T05:42:46;101604.75;;;7.34;57.19
9764;BME280;4921;43.214;27.936;2023-03-18T05:45:13;101607.50;;;7.48;54.90
9764;BME280;4921;43.214;27.936;2023-03-18T05:47:40;101607.19;;;7.54;53.40
9764;BME280;4921;43.214;27.936;2023-03-18T05:50:10;101607.97;;;7.56;53.40
9764;BME280;4921;43.214;27.936;2023-03-18T05:52:37;101609.88;;;7.53;53.75
9764;BME280;4921;43.214;27.936;2023-03-18T05:55:05;101609.50;;;7.60;53.13
9764;BME280;4921;43.214;27.936;2023-03-18T05:57:32;101621.78;;;7.76;53.08
9764;BME280;4921;43.214;27.936;2023-03-18T05:59:59;101619.41;;;7.71;53.06
9764;BME280;4921;43.214;27.936;2023-03-18T06:02:26;101590.84;;;7.66;53.45
9764;BME280;4921;43.214;27.936;2023-03-18T06:04:53;101618.81;;;7.99;52.64
9764;BME280;4921;43.214;27.936;2023-03-18T06:07:21;101621.63;;;8.11;52.02
9764;BME280;4921;43.214;27.936;2023-03-18T06:09:48;101628.09;;;8.21;52.13
9764;BME280;4921;43.214;27.936;2023-03-18T06:12:16;101622.22;;;8.33;51.38
9764;BME280;4921;43.214;27.936;2023-03-18T06:14:44;101624.25;;;8.44;51.77
9764;BME280;4921;43.214;27.936;2023-03-18T06:17:11;101630.75;;;8.53;52.19
9764;BME280;4921;43.214;27.936;2023-03-18T06:19:38;101636.00;;;8.53;51.47
9764;BME280;4921;43.214;27.936;2023-03-18T06:22:05;101625.25;;;8.57;51.81
9764;BME280;4921;43.214;27.936;2023-03-18T06:24:33;101631.88;;;8.64;52.52
9764;BME280;4921;43.214;27.936;2023-03-18T06:27:00;101635.06;;;8.69;54.83
9764;BME280;4921;43.214;27.936;2023-03-18T06:29:28;101622.72;;;8.71;54.79
9764;BME280;4921;43.214;27.936;2023-03-18T06:31:56;101630.31;;;8.91;54.15
9764;BME280;4921;43.214;27.936;2023-03-18T06:34:22;101627.00;;;9.03;52.21
9764;BME280;4921;43.214;27.936;2023-03-18T06:36:49;101633.41;;;9.13;52.58
9764;BME280;4921;43.214;27.936;2023-03-18T06:39:17;101625.91;;;9.37;52.22
9764;BME280;4921;43.214;27.936;2023-03-18T06:41:45;101625.09;;;9.51;51.54
9764;BME280;4921;43.214;27.936;2023-03-18T06:44:12;101619.22;;;9.61;53.45
9764;BME280;4921;43.214;27.936;2023-03-18T06:46:39;101621.56;;;9.80;51.96
9764;BME280;4921;43.214;27.936;2023-03-18T06:49:07;101609.56;;;9.90;51.33
9764;BME280;4921;43.214;27.936;2023-03-18T06:51:34;101614.63;;;10.07;52.80
9764;BME280;4921;43.214;27.936;2023-03-18T06:54:01;101621.59;;;10.36;52.23
9764;BME280;4921;43.214;27.936;2023-03-18T06:56:28;101632.19;;;10.63;51.12
9764;BME280;4921;43.214;27.936;2023-03-18T06:58:59;101624.53;;;10.72;51.70
9764;BME280;4921;43.214;27.936;2023-03-18T07:01:26;101636.25;;;10.81;50.89
9764;BME280;4921;43.214;27.936;2023-03-18T07:03:54;101627.75;;;10.90;50.14
9764;BME280;4921;43.214;27.936;2023-03-18T07:06:23;101619.28;;;10.99;50.37
9764;BME280;4921;43.214;27.936;2023-03-18T07:08:50;101618.25;;;11.02;49.66
9764;BME280;4921;43.214;27.936;2023-03-18T07:11:20;101623.31;;;11.17;49.34
9764;BME280;4921;43.214;27.936;2023-03-18T07:13:48;101615.03;;;11.23;49.91
9764;BME280;4921;43.214;27.936;2023-03-18T07:16:17;101615.03;;;11.23;50.69
9764;BME280;4921;43.214;27.936;2023-03-18T07:18:44;101606.72;;;11.29;51.65
9764;BME280;4921;43.214;27.936;2023-03-18T07:21:11;101626.41;;;11.24;51.35
9764;BME280;4921;43.214;27.936;2023-03-18T07:23:38;101625.56;;;11.23;52.08
9764;BME280;4921;43.214;27.936;2023-03-18T07:26:05;101616.84;;;11.35;50.85
9764;BME280;4921;43.214;27.936;2023-03-18T07:28:33;101619.38;;;11.37;50.26
9764;BME280;4921;43.214;27.936;2023-03-18T07:31:00;101628.53;;;11.31;51.77
9764;BME280;4921;43.214;27.936;2023-03-18T07:36:38;101625.50;;;11.50;52.09
9764;BME280;4921;43.214;27.936;2023-03-18T07:39:07;101620.25;;;11.63;50.73
9764;BME280;4921;43.214;27.936;2023-03-18T07:41:35;101617.03;;;11.84;55.82
9764;BME280;4921;43.214;27.936;2023-03-18T07:44:02;101617.84;;;12.10;50.63
9764;BME280;4921;43.214;27.936;2023-03-18T07:46:29;101610.47;;;12.15;50.10
9764;BME280;4921;43.214;27.936;2023-03-18T07:48:56;101612.28;;;12.02;51.32
9764;BME280;4921;43.214;27.936;2023-03-18T07:51:23;101614.97;;;12.25;53.90
9764;BME280;4921;43.214;27.936;2023-03-18T07:53:52;101617.31;;;12.17;51.29
9764;BME280;4921;43.214;27.936;2023-03-18T07:56:19;101622.81;;;12.02;51.83
9764;BME280;4921;43.214;27.936;2023-03-18T07:58:46;101627.97;;;12.03;51.58
9764;BME280;4921;43.214;27.936;2023-03-18T08:01:13;101619.34;;;12.01;51.49
9764;BME280;4921;43.214;27.936;2023-03-18T08:03:43;101630.97;;;11.99;51.17
9764;BME280;4921;43.214;27.936;2023-03-18T08:06:10;101616.50;;;11.92;52.31
9764;BME280;4921;43.214;27.936;2023-03-18T08:08:38;101619.56;;;11.86;52.64
9764;BME280;4921;43.214;27.936;2023-03-18T08:11:07;101621.88;;;11.78;53.22
9764;BME280;4921;43.214;27.936;2023-03-18T08:13:34;101627.06;;;11.79;53.75
9764;BME280;4921;43.214;27.936;2023-03-18T08:16:02;101621.25;;;11.87;53.30
9764;BME280;4921;43.214;27.936;2023-03-18T08:18:29;101618.31;;;11.79;53.96
9764;BME280;4921;43.214;27.936;2023-03-18T08:20:56;101613.53;;;11.71;55.00
9764;BME280;4921;43.214;27.936;2023-03-18T08:23:23;101615.94;;;11.62;56.25
9764;BME280;4921;43.214;27.936;2023-03-18T08:25:50;101609.94;;;11.60;57.79
9764;BME280;4921;43.214;27.936;2023-03-18T08:28:18;101608.56;;;11.67;58.31
9764;BME280;4921;43.214;27.936;2023-03-18T08:30:45;101617.88;;;11.72;60.94
9764;BME280;4921;43.214;27.936;2023-03-18T08:33:13;101613.94;;;11.65;57.97
9764;BME280;4921;43.214;27.936;2023-03-18T08:35:40;101630.94;;;11.74;58.85
9764;BME280;4921;43.214;27.936;2023-03-18T08:38:08;101621.44;;;11.71;58.02
9764;BME280;4921;43.214;27.936;2023-03-18T08:40:35;101619.44;;;11.62;57.78
9764;BME280;4921;43.214;27.936;2023-03-18T08:43:02;101633.06;;;11.69;58.58
9764;BME280;4921;43.214;27.936;2023-03-18T08:45:31;101628.16;;;11.63;58.02
9764;BME280;4921;43.214;27.936;2023-03-18T08:47:58;101625.19;;;11.55;59.34
9764;BME280;4921;43.214;27.936;2023-03-18T08:50:25;101631.31;;;11.42;62.23
9764;BME280;4921;43.214;27.936;2023-03-18T08:52:55;101623.16;;;11.45;60.55
9764;BME280;4921;43.214;27.936;2023-03-18T08:55:27;101619.91;;;11.42;60.18
9764;BME280;4921;43.214;27.936;2023-03-18T08:57:55;101614.53;;;11.43;60.72
9764;BME280;4921;43.214;27.936;2023-03-18T09:00:22;101619.59;;;11.34;61.59
9764;BME280;4921;43.214;27.936;2023-03-18T09:02:52;101624.34;;;11.41;61.19
9764;BME280;4921;43.214;27.936;2023-03-18T09:05:20;101614.34;;;11.46;61.30
9764;BME280;4921;43.214;27.936;2023-03-18T09:07:47;101619.59;;;11.46;61.20
9764;BME280;4921;43.214;27.936;2023-03-18T09:10:14;101598.91;;;11.28;61.97
9764;BME280;4921;43.214;27.936;2023-03-18T09:12:43;101609.66;;;11.25;62.77
9764;BME280;4921;43.214;27.936;2023-03-18T09:15:12;101623.88;;;11.22;63.44
9764;BME280;4921;43.214;27.936;2023-03-18T09:17:40;101620.06;;;11.14;63.90
9764;BME280;4921;43.214;27.936;2023-03-18T09:20:11;101616.97;;;11.07;65.61
9764;BME280;4921;43.214;27.936;2023-03-18T09:22:40;101613.19;;;11.11;65.28
9764;BME280;4921;43.214;27.936;2023-03-18T09:25:08;101616.81;;;11.23;65.14
9764;BME280;4921;43.214;27.936;2023-03-18T09:27:35;101608.31;;;11.32;65.13
9764;BME280;4921;43.214;27.936;2023-03-18T09:30:03;101621.97;;;11.24;65.24
9764;BME280;4921;43.214;27.936;2023-03-18T09:32:30;101613.03;;;11.27;64.29
9764;BME280;4921;43.214;27.936;2023-03-18T09:34:57;101606.81;;;11.28;66.06
9764;BME280;4921;43.214;27.936;2023-03-18T09:37:26;101606.00;;;11.27;66.08
9764;BME280;4921;43.214;27.936;2023-03-18T09:39:53;101609.38;;;11.29;65.62
9764;BME280;4921;43.214;27.936;2023-03-18T09:42:30;101610.22;;;11.30;68.17
9764;BME280;4921;43.214;27.936;2023-03-18T09:45:07;101609.50;;;11.40;66.00
9764;BME280;4921;43.214;27.936;2023-03-18T09:47:49;101589.66;;;11.22;65.92
9764;BME280;4921;43.214;27.936;2023-03-18T09:50:29;101599.25;;;11.23;65.84
9764;BME280;4921;43.214;27.936;2023-03-18T09:53:06;101610.72;;;11.35;66.56
9764;BME280;4921;43.214;27.936;2023-03-18T09:55:41;101619.66;;;11.32;67.82
9764;BME280;4921;43.214;27.936;2023-03-18T09:58:17;101618.00;;;11.31;67.20
9764;BME280;4921;43.214;27.936;2023-03-18T10:00:46;101613.16;;;11.38;67.52
9764;BME280;4921;43.214;27.936;2023-03-18T10:03:20;101611.69;;;11.34;68.47
9764;BME280;4921;43.214;27.936;2023-03-18T10:05:55;101612.94;;;11.41;67.60
9764;BME280;4921;43.214;27.936;2023-03-18T10:08:34;101608.63;;;11.40;67.17
9764;BME280;4921;43.214;27.936;2023-03-18T10:11:13;101608.63;;;11.40;67.59
9764;BME280;4921;43.214;27.936;2023-03-18T10:13:44;101613.25;;;11.36;68.73
9764;BME280;4921;43.214;27.936;2023-03-18T10:16:19;101602.94;;;11.33;68.96
9764;BME280;4921;43.214;27.936;2023-03-18T10:18:48;101606.63;;;11.31;68.25
9764;BME280;4921;43.214;27.936;2023-03-18T10:21:20;101603.25;;;11.29;68.16
9764;BME280;4921;43.214;27.936;2023-03-18T10:24:00;101595.53;;;11.26;68.57
9764;BME280;4921;43.214;27.936;2023-03-18T10:26:31;101595.03;;;11.33;69.11
9764;BME280;4921;43.214;27.936;2023-03-18T10:29:17;101589.97;;;11.30;70.94
9764;BME280;4921;43.214;27.936;2023-03-18T10:31:57;101592.25;;;11.10;73.95
9764;BME280;4921;43.214;27.936;2023-03-18T10:34:34;101581.38;;;11.02;72.85
9764;BME280;4921;43.214;27.936;2023-03-18T10:37:09;101596.06;;;11.18;72.47
9764;BME280;4921;43.214;27.936;2023-03-18T10:39:41;101573.72;;;11.24;70.30
9764;BME280;4921;43.214;27.936;2023-03-18T10:42:18;101590.38;;;11.24;68.87
9764;BME280;4921;43.214;27.936;2023-03-18T10:44:46;101586.50;;;11.30;66.55
9764;BME280;4921;43.214;27.936;2023-03-18T10:47:17;101575.63;;;11.22;67.38
9764;BME280;4921;43.214;27.936;2023-03-18T10:50:00;101586.56;;;11.16;68.86
9764;BME280;4921;43.214;27.936;2023-03-18T10:52:33;101594.59;;;11.14;68.99
9764;BME280;4921;43.214;27.936;2023-03-18T10:55:12;101567.84;;;11.20;68.76
9764;BME280;4921;43.214;27.936;2023-03-18T10:57:41;101568.66;;;11.08;69.11
9764;BME280;4921;43.214;27.936;2023-03-18T11:00:24;101569.50;;;11.09;68.63
9764;BME280;4921;43.214;27.936;2023-03-18T11:02:53;101569.50;;;11.09;67.89
9764;BME280;4921;43.214;27.936;2023-03-18T11:05:23;101563.28;;;11.10;67.53
9764;BME280;4921;43.214;27.936;2023-03-18T11:07:55;101549.06;;;11.00;67.33
9764;BME280;4921;43.214;27.936;2023-03-18T11:10:26;101557.78;;;11.00;67.52
9764;BME280;4921;43.214;27.936;2023-03-18T11:12:57;101555.69;;;10.93;68.38
9764;BME280;4921;43.214;27.936;2023-03-18T11:15:27;101558.91;;;10.84;68.37
9764;BME280;4921;43.214;27.936;2023-03-18T11:17:58;101564.97;;;10.71;69.62
9764;BME280;4921;43.214;27.936;2023-03-18T11:20:32;101561.22;;;10.61;70.77
9764;BME280;4921;43.214;27.936;2023-03-18T11:23:13;101537.06;;;10.42;70.45
9764;BME280;4921;43.214;27.936;2023-03-18T11:25:45;101560.59;;;10.58;70.61
9764;BME280;4921;43.214;27.936;2023-03-18T11:28:19;101556.63;;;10.65;71.11
9764;BME280;4921;43.214;27.936;2023-03-18T11:30:49;101558.41;;;10.64;71.87
9764;BME280;4921;43.214;27.936;2023-03-18T11:33:17;101569.69;;;10.66;71.85
9764;BME280;4921;43.214;27.936;2023-03-18T11:35:47;101558.41;;;10.64;71.84
9764;BME280;4921;43.214;27.936;2023-03-18T11:38:18;101566.00;;;10.69;71.50
9764;BME280;4921;43.214;27.936;2023-03-18T11:40:47;101549.94;;;10.73;71.47
9764;BME280;4921;43.214;27.936;2023-03-18T11:43:19;101552.88;;;10.69;72.93
9764;BME280;4921;43.214;27.936;2023-03-18T11:45:50;101557.09;;;10.71;72.46
9764;BME280;4921;43.214;27.936;2023-03-18T11:48:29;101557.00;;;10.59;75.28
9764;BME280;4921;43.214;27.936;2023-03-18T11:51:27;101556.88;;;10.74;74.46
9764;BME280;4921;43.214;27.936;2023-03-18T11:54:10;101555.19;;;10.73;73.94
9764;BME280;4921;43.214;27.936;2023-03-18T11:56:45;101553.75;;;10.82;74.04
9764;BME280;4921;43.214;27.936;2023-03-18T11:59:22;101553.94;;;10.79;74.54
9764;BME280;4921;43.214;27.936;2023-03-18T12:02:00;101545.00;;;10.82;74.57
9764;BME280;4921;43.214;27.936;2023-03-18T12:04:54;101540.63;;;10.68;75.84
9764;BME280;4921;43.214;27.936;2023-03-18T12:07:39;101545.94;;;10.81;75.31
9764;BME280;4921;43.214;27.936;2023-03-18T12:10:17;101545.59;;;10.72;76.31
9764;BME280;4921;43.214;27.936;2023-03-18T12:13:10;101546.22;;;10.76;76.96
9764;BME280;4921;43.214;27.936;2023-03-18T12:15:45;101533.22;;;10.87;76.83
9764;BME280;4921;43.214;27.936;2023-03-18T12:18:33;101533.16;;;10.89;77.59
9764;BME280;4921;43.214;27.936;2023-03-18T12:21:08;101545.84;;;10.82;77.12
9764;BME280;4921;43.214;27.936;2023-03-18T12:23:52;101545.06;;;10.67;78.79
9764;BME280;4921;43.214;27.936;2023-03-18T12:26:29;101540.22;;;10.74;79.48
9764;BME280;4921;43.214;27.936;2023-03-18T12:29:33;101548.13;;;10.74;79.29
9764;BME280;4921;43.214;27.936;2023-03-18T12:32:08;101543.53;;;10.78;79.02
9764;BME280;4921;43.214;27.936;2023-03-18T12:34:52;101537.84;;;10.57;79.72
9764;BME280;4921;43.214;27.936;2023-03-18T12:37:32;101553.00;;;10.53;80.55
9764;BME280;4921;43.214;27.936;2023-03-18T12:40:12;101550.47;;;10.52;81.01
9764;BME280;4921;43.214;27.936;2023-03-18T12:43:23;101551.97;;;10.56;80.87
9764;BME280;4921;43.214;27.936;2023-03-18T12:46:02;101556.56;;;10.52;79.63
9764;BME280;4921;43.214;27.936;2023-03-18T12:48:32;101549.81;;;10.48;80.18
9764;BME280;4921;43.214;27.936;2023-03-18T12:51:05;101546.00;;;10.40;79.58
9764;BME280;4921;43.214;27.936;2023-03-18T12:53:36;101553.28;;;10.49;80.25
9764;BME280;4921;43.214;27.936;2023-03-18T12:56:10;101566.34;;;10.50;80.59
9764;BME280;4921;43.214;27.936;2023-03-18T12:58:41;101553.69;;;10.43;82.70
9764;BME280;4921;43.214;27.936;2023-03-18T13:01:14;101542.44;;;10.41;83.29
9764;BME280;4921;43.214;27.936;2023-03-18T13:03:43;101540.00;;;10.38;82.49
9764;BME280;4921;43.214;27.936;2023-03-18T13:06:15;101520.03;;;10.21;81.76
9764;BME280;4921;43.214;27.936;2023-03-18T13:08:55;101547.34;;;10.33;81.68
9764;BME280;4921;43.214;27.936;2023-03-18T13:14:35;101548.31;;;10.18;82.51
9764;BME280;4921;43.214;27.936;2023-03-18T13:17:10;101539.75;;;10.14;82.72
9764;BME280;4921;43.214;27.936;2023-03-18T13:19:40;101521.47;;;10.13;83.30
9764;BME280;4921;43.214;27.936;2023-03-18T13:22:18;101526.53;;;10.16;84.59
9764;BME280;4921;43.214;27.936;2023-03-18T13:25:01;101535.25;;;10.16;84.82
9764;BME280;4921;43.214;27.936;2023-03-18T13:27:45;101520.53;;;9.99;87.07
9764;BME280;4921;43.214;27.936;2023-03-18T13:30:22;101518.00;;;9.98;86.46